TAF Text Data
IDs:
Format:
Raw Decoded Include METAR

Data at: 0512 UTC 30 Jun 2022

KVLD 292340Z 3000/3024 VRB03KT 4SM RA VCTS OVC035CB
  TEMPO 3000/3004 VRB10G15KT 2SM TSRA BR
  FM300400 VRB03KT P6SM SCT100
  FM301500 06005KT P6SM SCT050
  FM301800 08006KT 6SM SHRA VCTS BKN050CB
  PROB30 3018/3024 VRB05G15KT 4SM TSRA